Colorado Springs, CO (80933)

1:39 AM MDT on August 28, 2014 (GMT -0600)
Pike's Peak | Change Station
CLOSE
Current Station
Personal Weather Station
Location: Woodland Park, CO
Elevation: 8293 ft
Nearby Weather Stations

Elev 8293 ft 38.97 °N, 105.03 °W | Updated 3 seconds ago

Partly Cloudy
Partly Cloudy
46.2 °F
Feels Like 46 °F
N
0.0
Wind Variable Wind from NW
Gusts 1.0 mph

Today
High -- | Low -- °F
--% Chance of Precip.
Yesterday
High -- | Low -- °F
Precip. -- in
6:25 AM 7:36 PM
Waxing Crescent, 7% visible
Pressure 30.00 in
Visibility 10.0 miles
Clouds Clear
Windchill 46 °F
Dew Point 36 °F
Humidity 66%
Rainfall 0.00 in
Snow Depth Not available.
UV 0 out of 12
Pollen 8.10 out of 12
Ozone Good
Flu Activity Not available.
METAR KAFF 280658Z AUTO 01008KT 10SM CLR 11/07 A3022 RMK AO2 SLP158 T01090071 402440104

More Conditions Fewer Conditions

Pressure 30.00 in
Visibility 10.0 miles
Clouds Clear
Windchill 46 °F
Dew Point 36 °F
Humidity 66%
Rainfall 0.00 in
Snow Depth Not available.
UV 0 out of 12
Pollen 8.10 out of 12
Ozone Good
Flu Activity Not available.
METAR KAFF 280658Z AUTO 01008KT 10SM CLR 11/07 A3022 RMK AO2 SLP158 T01090071 402440104

More Conditions Fewer Conditions

10-Day Weather Forecast

Almanac

Astronomy

Aug. 28, 2014 Rise Set
Actual Time 6:25 AM MDT 7:36 PM MDT
Civil Twilight 5:57 AM MDT 8:03 PM MDT
Nautical Twilight 5:24 AM MDT 8:36 PM MDT
Astronomical Twilight 4:50 AM MDT 9:10 PM MDT
Moon 9:18 AM MDT 9:03 PM MDT
Length of Visible Light 14h 06m
Length of Day
13h 10m
Tomorrow will be 2m 24s shorter.
Waxing Crescent, 7% of the Moon is Illuminated
Today
Waxing Crescent
Sep 2
First Quarter
Sep 8
Full
Sep 15
Last Quarter
Sep 24
New

Today's Extremes

State Highs State Lows

Community

WunderPhotos

Upload Photos

1,747,912 photos uploaded!

Nearby

Air Quality

  Air Quality AQ Index Pollutant
Yesterday Good
OZONE
Yesterday Good
PM2.5
Current Good
OZONE
Wednesday Good
PM2.5
Wednesday Good
OZONE
Thursday Good
PM2.5
Thursday Good
OZONE

Snow Depth

Station Depth Elevation
Glen Cove 0 in 11460 ft
Rough And Tumble 1 in 10360 ft
Echo Lake 0 in 10600 ft
Michigan Creek 0 in 10600 ft
Jackwhacker Gulch 0 in 10960 ft

Earthquake Activity

City Distance Mag. Time & Date
No recent earthquake activity has been reported nearby.
Minimum magnitude displayed is 2.5.

Coastal Water Temperatures

Place Temperature
No Stations Reporting

Nearby Weather Stations